Star Martha — V7TY3 — position and weather

sailwx.info

Track history (hours):
 
Tides and Currents Weather Stations Pressure Air Temp Water Temp Dewpoint Dewpoint Depression Visibility Wind Speed Wind Dir Waves Ship Positions

Star Martha

Last reported at 2018-Feb-11 13:10 UTC. Time now 2018-Feb-17 20:19 UTC.
Position N 49°45' W 003°38'.

Length 289 m; draft 9.5 m.

Type: Cargo ship. MMSI: 538003904.

Date/timePositionNaut miles runAvg speedWind from/ knotsBaromVisibWave heightAir tempDewpointWater temp
2018-Feb-11 13:10N 49°45' W 003°38'211.4
2018-Feb-11 13:00N 49°46' W 003°35'611.6
2018-Feb-11 12:30N 49°49' W 003°27'612.1
2018-Feb-11 12:00N 49°51' W 003°19'612.5
2018-Feb-11 11:30N 49°54' W 003°11'712.9
2018-Feb-11 11:00N 49°58' W 003°02'612.9
2018-Feb-11 10:30N 49°60' W 002°53'712.9
2018-Feb-11 10:00N 50°02' W 002°43'612.9
2018-Feb-11 09:30N 50°03' W 002°33'712.7
2018-Feb-11 08:58N 50°05' W 002°23'1212.0
2018-Feb-11 07:57N 50°08' W 002°04'511.5
2018-Feb-11 07:29N 50°10' W 001°56'510.9
2018-Feb-11 07:00N 50°11' W 001°49'510.2
2018-Feb-11 06:30N 50°13' W 001°41'510.0
2018-Feb-11 06:00N 50°14' W 001°33'5 9.5
2018-Feb-11 05:31N 50°15' W 001°26'5 9.2
2018-Feb-11 04:59N 50°16' W 001°19'4 9.0
2018-Feb-11 04:30N 50°17' W 001°12'12 9.2
2018-Feb-11 03:15N 50°20' W 000°55'310.0
2018-Feb-11 02:57N 50°21' W 000°51'1510.7
2018-Feb-11 01:30N 50°25' W 000°27'510.9
2018-Feb-11 01:00N 50°27' W 000°19'611.3
2018-Feb-11 00:29N 50°29' W 000°10'611.6
2018-Feb-11 00:00N 50°30' W 000°02'611.3
2018-Feb-10 23:30N 50°31' E 000°07'611.2
2018-Feb-10 23:00N 50°32' E 000°16'611.0
2018-Feb-10 22:30N 50°34' E 000°24'511.0
2018-Feb-10 22:00N 50°35' E 000°32'510.5
2018-Feb-10 21:30N 50°37' E 000°40'510.1
2018-Feb-10 21:00N 50°40' E 000°46'510.0
2018-Feb-10 20:30N 50°43' E 000°52'5 9.5
2018-Feb-10 20:00N 50°46' E 000°59'5 9.5
2018-Feb-10 19:30N 50°49' E 001°05'5 9.7
2018-Feb-10 19:00N 50°52' E 001°11'5 9.6
2018-Feb-10 18:30N 50°54' E 001°18'5 9.5
2018-Feb-10 18:00N 50°58' E 001°22'510.0
2018-Feb-10 17:30N 51°02' E 001°27'510.8
2018-Feb-10 17:01N 51°05' E 001°34'510.1
2018-Feb-10 16:30N 51°03' E 001°42'510.0
2018-Feb-10 16:00N 51°02' E 001°50'5 9.5
2018-Feb-10 15:30N 51°03' E 001°57'713.4
2018-Feb-10 15:00N 51°03' E 002°08'713.1
2018-Feb-10 14:30N 51°04' E 002°18'2 3.2
2018-Feb-10 14:00N 51°03' E 002°21'0 0.2
2018-Feb-10 13:30N 51°03' E 002°20'0 0.1
2018-Feb-10 13:00N 51°03' E 002°20'0 0.8
2018-Feb-10 12:30N 51°03' E 002°20'0 0.2
2018-Feb-10 11:58N 51°03' E 002°20'0 0.0
2018-Feb-10 11:28N 51°03' E 002°20'0 0.0
2018-Feb-10 10:58N 51°03' E 002°20'0 0.0
2018-Feb-10 10:28N 51°03' E 002°20'0 0.0
2018-Feb-10 09:58N 51°03' E 002°20'0 0.0
2018-Feb-10 09:25N 51°03' E 002°20'0 0.0
2018-Feb-10 08:58N 51°03' E 002°20'0 0.0
2018-Feb-10 08:28N 51°03' E 002°20'0 0.0
2018-Feb-10 07:58N 51°03' E 002°20'0 0.0
2018-Feb-10 07:28N 51°03' E 002°20'0 0.0
2018-Feb-10 06:58N 51°03' E 002°20'0 0.0
2018-Feb-10 06:25N 51°03' E 002°20'0 0.0
2018-Feb-10 05:58N 51°03' E 002°20'0 0.0
2018-Feb-10 05:28N 51°03' E 002°20'0 0.0
2018-Feb-10 04:58N 51°03' E 002°20'0 0.0
2018-Feb-10 04:28N 51°03' E 002°20'0 0.0
2018-Feb-10 03:58N 51°03' E 002°20'0 0.0
2018-Feb-10 03:25N 51°03' E 002°20'0 0.0
2018-Feb-10 02:58N 51°03' E 002°20'0 0.0
2018-Feb-10 02:25N 51°03' E 002°20'0 0.0
2018-Feb-10 01:58N 51°03' E 002°20'0 0.0
2018-Feb-10 01:28N 51°03' E 002°20'0 0.0
2018-Feb-10 00:58N 51°03' E 002°20'0 0.0
2018-Feb-10 00:28N 51°03' E 002°20'0 0.0
2018-Feb-09 23:58N 51°03' E 002°20'0 0.0
2018-Feb-09 23:25N 51°03' E 002°20'0 0.0
2018-Feb-09 22:58N 51°03' E 002°20'0 0.0
2018-Feb-09 22:43N 51°03' E 002°20'0 0.0
2018-Feb-08 01:28N 51°03' E 002°20'0 0.0
2018-Feb-08 00:58N 51°03' E 002°20'0 0.0
2018-Feb-08 00:28N 51°03' E 002°20'0 0.0
2018-Feb-07 23:58N 51°03' E 002°20'0 0.0
2018-Feb-07 23:22N 51°03' E 002°20'0 0.0
2018-Feb-07 22:58N 51°03' E 002°20'0 0.0
2018-Feb-07 22:28N 51°03' E 002°20'0 0.0
2018-Feb-07 21:58N 51°03' E 002°20'0 0.0
2018-Feb-07 21:31N 51°03' E 002°20'0 0.0
2018-Feb-07 09:28N 51°03' E 002°20'0 0.0
2018-Feb-07 08:58N 51°03' E 002°20'0 0.0
2018-Feb-07 08:28N 51°03' E 002°20'0 0.0
2018-Feb-07 07:58N 51°03' E 002°20'0 0.0
2018-Feb-07 07:28N 51°03' E 002°20'0 0.0
2018-Feb-07 06:58N 51°03' E 002°20'0 0.0
2018-Feb-07 06:28N 51°03' E 002°20'0 0.0
2018-Feb-07 05:58N 51°03' E 002°20'0 0.0
2018-Feb-07 05:28N 51°03' E 002°20'0 0.0
2018-Feb-07 04:58N 51°03' E 002°20'0 0.0
2018-Feb-07 04:25N 51°03' E 002°20'0 0.0
2018-Feb-07 03:58N 51°03' E 002°20'0 0.0
2018-Feb-07 03:28N 51°03' E 002°20'0 0.0
2018-Feb-07 02:55N 51°03' E 002°20'0 0.0
2018-Feb-07 02:28N 51°03' E 002°20'0 0.0
2018-Feb-07 01:58N 51°03' E 002°20'0 0.0
2018-Feb-07 01:28N 51°03' E 002°20'0 0.0
2018-Feb-07 00:58N 51°03' E 002°20'0 0.0
2018-Feb-07 00:22N 51°03' E 002°20'0 0.0
2018-Feb-06 23:58N 51°03' E 002°20'0 0.0
2018-Feb-06 23:28N 51°03' E 002°20'0 0.0
2018-Feb-06 22:58N 51°03' E 002°20'0 0.0
2018-Feb-06 22:28N 51°03' E 002°20'0 0.0
2018-Feb-06 21:58N 51°03' E 002°20'0 0.0
2018-Feb-06 21:28N 51°03' E 002°20'0 0.0
2018-Feb-06 20:58N 51°03' E 002°20'0 0.0
2018-Feb-06 20:28N 51°03' E 002°20'1 0.6
2018-Feb-06 19:30N 51°03' E 002°20'0 0.1
2018-Feb-06 19:00N 51°03' E 002°21'0 0.3
2018-Feb-06 18:30N 51°03' E 002°21'1 1.2
2018-Feb-06 17:58N 51°04' E 002°21'3 7.2
2018-Feb-06 17:30N 51°04' E 002°15'4 7.8
2018-Feb-06 17:00N 51°03' E 002°09'2 4.4
2018-Feb-06 16:30N 51°01' E 002°10'1 1.4
2018-Feb-06 15:58N 51°00' E 002°11'0 0.0
2018-Feb-06 15:25N 51°00' E 002°11'0 0.0
2018-Feb-06 14:52N 51°00' E 002°11'0 0.0
2018-Feb-06 14:25N 51°00' E 002°11'0 0.0
2018-Feb-06 13:37N 51°00' E 002°11'0 0.0
2018-Feb-06 13:28N 51°00' E 002°11'0 0.0
2018-Feb-06 12:58N 51°00' E 002°11'0 0.0
2018-Feb-06 12:28N 51°00' E 002°11'0 0.0
2018-Feb-06 11:58N 51°00' E 002°11'0 0.0
2018-Feb-06 11:22N 51°00' E 002°11'0 0.0
2018-Feb-06 10:58N 51°00' E 002°11'0 0.0
2018-Feb-06 10:28N 51°00' E 002°11'0 0.0
2018-Feb-06 09:58N 51°00' E 002°11'0 0.0
2018-Feb-06 09:28N 51°00' E 002°11'0 0.0
2018-Feb-06 08:58N 51°00' E 002°11'0 0.0
2018-Feb-06 08:28N 51°00' E 002°11'0 0.0
2018-Feb-06 07:55N 51°00' E 002°11'0 0.0
2018-Feb-06 07:16N 51°00' E 002°11'0 0.0
2018-Feb-06 06:58N 51°00' E 002°11'0 0.0
2018-Feb-06 06:28N 51°00' E 002°11'0 0.0
2018-Feb-06 05:55N 51°00' E 002°11'0 0.0
2018-Feb-06 05:28N 51°00' E 002°11'0 0.0
2018-Feb-06 04:58N 51°00' E 002°11'0 0.0
2018-Feb-06 04:25N 51°00' E 002°11'0 0.0
2018-Feb-06 03:58N 51°00' E 002°11'0 0.0
2018-Feb-06 03:28N 51°00' E 002°11'0 0.0
2018-Feb-06 02:58N 51°00' E 002°11'0 0.0
2018-Feb-06 02:28N 51°00' E 002°11'0 0.0
2018-Feb-06 01:58N 51°00' E 002°11'0 0.0
2018-Feb-06 01:28N 51°00' E 002°11'0 0.0
2018-Feb-06 00:55N 51°00' E 002°11'0 0.0
2018-Feb-06 00:28N 51°00' E 002°11'0 0.0
2018-Feb-05 23:58N 51°00' E 002°11'0 0.0
2018-Feb-05 23:28N 51°00' E 002°11'0 0.0
2018-Feb-05 22:55N 51°00' E 002°11'0 0.0
2018-Feb-05 22:28N 51°00' E 002°11'0 0.0
2018-Feb-05 21:55N 51°00' E 002°11'0 0.0
2018-Feb-05 21:28N 51°00' E 002°11'0 0.0
2018-Feb-05 20:55N 51°00' E 002°11'0 0.0
2018-Feb-05 20:28N 51°00' E 002°11'0 0.0
2018-Feb-05 19:58N 51°00' E 002°11'0 0.0
2018-Feb-05 19:28N 51°00' E 002°11'0 0.0
2018-Feb-05 18:58N 51°00' E 002°11'0 0.0
2018-Feb-05 18:28N 51°00' E 002°11'0 0.0
2018-Feb-05 17:58N 51°00' E 002°11'0 0.0
2018-Feb-05 17:28N 51°00' E 002°11'0 0.0
2018-Feb-05 16:58N 51°00' E 002°11'0 0.0
2018-Feb-05 16:28N 51°00' E 002°11'0 0.0
2018-Feb-05 15:58N 51°00' E 002°11'0 0.0
2018-Feb-05 15:28N 51°00' E 002°11'0 0.0
2018-Feb-05 14:58N 51°00' E 002°11'0 0.0
2018-Feb-05 14:28N 51°00' E 002°11'0 0.0
2018-Feb-05 13:58N 51°00' E 002°11'0 0.0
2018-Feb-05 13:28N 51°00' E 002°11'0 0.0
2018-Feb-05 12:58N 51°00' E 002°11'0 0.0
2018-Feb-05 12:28N 51°00' E 002°11'0 0.0
2018-Feb-05 11:58N 51°00' E 002°11'0 0.0
2018-Feb-05 11:28N 51°00' E 002°11'0 0.0
2018-Feb-05 10:58N 51°00' E 002°11'0 0.0
2018-Feb-05 10:28N 51°00' E 002°11'0 0.0
2018-Feb-05 09:58N 51°00' E 002°11'0 0.0
2018-Feb-05 09:28N 51°00' E 002°11'0 0.0
2018-Feb-05 08:58N 51°00' E 002°11'0 0.0
2018-Feb-05 08:28N 51°00' E 002°11'0 0.0
2018-Feb-05 07:58N 51°00' E 002°11'0 0.0
2018-Feb-05 07:22N 51°00' E 002°11'0 0.0
2018-Feb-05 06:58N 51°00' E 002°11'0 0.0
2018-Feb-05 06:28N 51°00' E 002°11'0 0.0
2018-Feb-05 05:28N 51°00' E 002°11'0 0.0
2018-Feb-05 05:01N 51°00' E 002°11'0 0.0
2018-Feb-05 04:28N 51°00' E 002°11'0 0.0
2018-Feb-05 03:58N 51°00' E 002°11'0 0.0
2018-Feb-05 03:28N 51°00' E 002°11'0 0.0
2018-Feb-05 02:58N 51°00' E 002°11'0 0.0
2018-Feb-05 02:28N 51°00' E 002°11'0 0.0
2018-Feb-05 01:58N 51°00' E 002°11'0 0.0
2018-Feb-05 01:25N 51°00' E 002°11'0 0.0
2018-Feb-05 01:01N 51°00' E 002°11'0 0.0
2018-Feb-05 00:28N 51°00' E 002°11'0 0.0
2018-Feb-04 23:58N 51°00' E 002°11'0 0.0
2018-Feb-04 23:28N 51°00' E 002°11'0 0.0
2018-Feb-04 22:58N 51°00' E 002°11'0 0.0
2018-Feb-04 22:28N 51°00' E 002°11'0 0.0
2018-Feb-04 21:58N 51°00' E 002°11'0 0.0
2018-Feb-04 21:28N 51°00' E 002°11'0 0.0
2018-Feb-04 20:58N 51°00' E 002°11'0 0.0
2018-Feb-04 19:58N 51°00' E 002°11'0 0.0
2018-Feb-04 19:28N 51°00' E 002°11'0 0.0
2018-Feb-04 18:58N 51°00' E 002°11'0 0.0
2018-Feb-04 18:28N 51°00' E 002°11'0 0.0
2018-Feb-04 17:58N 51°00' E 002°11'0 0.0
2018-Feb-04 17:22N 51°00' E 002°11'0 0.0
2018-Feb-04 15:28N 51°00' E 002°11'0 0.0
2018-Feb-04 14:58N 51°00' E 002°11'0 0.0
2018-Feb-04 14:31N 51°00' E 002°11'0 0.0
2018-Feb-04 13:58N 51°00' E 002°11'0 0.0
2018-Feb-04 13:28N 51°00' E 002°11'0 0.0
2018-Feb-04 12:58N 51°00' E 002°11'0 0.0
2018-Feb-04 12:28N 51°00' E 002°11'0 0.0
2018-Feb-04 11:58N 51°00' E 002°11'0 0.0
2018-Feb-04 11:28N 51°00' E 002°11'0 0.0
2018-Feb-04 09:58N 51°00' E 002°11'0 0.0
2018-Feb-04 09:00N 51°00' E 002°11'0 0.0
2018-Feb-04 08:28N 51°00' E 002°11'0 0.0
2018-Feb-04 07:58N 51°00' E 002°11'0 0.0
2018-Feb-04 07:28N 51°00' E 002°11'0 0.0
2018-Feb-04 06:58N 51°00' E 002°11'0 0.0
2018-Feb-04 06:28N 51°00' E 002°11'0 0.0
2018-Feb-04 06:01N 51°00' E 002°11'0 0.0
2018-Feb-04 05:28N 51°00' E 002°11'0 0.0
2018-Feb-04 04:58N 51°00' E 002°11'0 0.0
2018-Feb-04 04:28N 51°00' E 002°11'0 0.0
2018-Feb-04 03:58N 51°00' E 002°11'0 0.0
2018-Feb-04 03:28N 51°00' E 002°11'0 0.0
2018-Feb-04 02:58N 51°00' E 002°11'0 0.0
2018-Feb-04 02:27N 51°00' E 002°11'0 0.0
2018-Feb-04 01:58N 51°00' E 002°11'0 0.0
2018-Feb-04 01:28N 51°00' E 002°11'0 0.0
2018-Feb-04 00:58N 51°00' E 002°11'0 0.0
2018-Feb-04 00:27N 51°00' E 002°11'0 0.0
2018-Feb-04 00:00N 51°00' E 002°11'0 0.0
2018-Feb-03 23:28N 51°00' E 002°11'0 0.0
2018-Feb-03 23:00N 51°00' E 002°11'0 0.0
2018-Feb-03 22:31N 51°00' E 002°11'0 0.0
2018-Feb-03 22:01N 51°00' E 002°11'0 0.0
2018-Feb-03 21:30N 51°00' E 002°11'0 0.0
2018-Feb-03 20:58N 51°00' E 002°11'0 0.0
2018-Feb-03 20:30N 51°00' E 002°11'0 0.0
2018-Feb-03 19:57N 51°00' E 002°11'0 0.0
2018-Feb-03 18:28N 51°00' E 002°11'0 0.0
2018-Feb-03 17:57N 51°00' E 002°11'0 0.0
2018-Feb-03 17:28N 51°00' E 002°11'0 0.0
2018-Feb-03 17:00N 51°00' E 002°11'0 0.0
2018-Feb-03 16:00N 51°00' E 002°11'0 0.0
2018-Feb-03 15:27N 51°00' E 002°11'0 0.0
2018-Feb-03 15:01N 51°00' E 002°11'0 0.0
2018-Feb-03 14:24N 51°00' E 002°11'0 0.1
2018-Feb-03 13:58N 51°00' E 002°11'0 0.1
2018-Feb-03 13:27N 51°00' E 002°11'0 0.0
2018-Feb-03 12:57N 51°00' E 002°11'0 0.0
2018-Feb-03 12:21N 51°00' E 002°11'0 0.2
2018-Feb-03 12:00N 51°00' E 002°11'1 1.2
2018-Feb-03 11:31N 51°01' E 002°11'1 2.6
2018-Feb-03 11:00N 51°02' E 002°10'3 5.5
2018-Feb-03 10:30N 51°03' E 002°06'4 7.2
2018-Feb-03 10:00N 51°02' E 002°00'4 9.0
2018-Feb-03 09:30N 51°03' E 001°53'3 6.8
2018-Feb-03 09:00N 51°02' E 001°48'1 2.8
2018-Feb-03 08:31N 51°03' E 001°46'0 0.2
2018-Feb-03 07:59N 51°03' E 001°46'0 0.2
2018-Feb-03 06:29N 51°03' E 001°46'0 0.4
2018-Feb-03 05:59N 51°03' E 001°46'0 0.1
2018-Feb-03 05:29N 51°03' E 001°46'0 0.1
2018-Feb-03 04:59N 51°03' E 001°46'0 0.0
2018-Feb-03 03:59N 51°03' E 001°47'0 0.0
2018-Feb-03 03:29N 51°03' E 001°47'0 0.0
2018-Feb-03 01:59N 51°03' E 001°47'0 0.0
2018-Feb-03 01:29N 51°03' E 001°47'0 0.0
2018-Feb-03 00:59N 51°03' E 001°47'0 0.0
2018-Feb-03 00:29N 51°03' E 001°47'0 0.2
2018-Feb-02 23:59N 51°03' E 001°47'0 0.5
2018-Feb-02 23:29N 51°03' E 001°46'0 0.3
2018-Feb-02 22:59N 51°03' E 001°46'0 0.1
2018-Feb-02 22:29N 51°03' E 001°46'0 0.0
2018-Feb-02 21:59N 51°03' E 001°46'0 0.0
2018-Feb-02 21:29N 51°03' E 001°46'0 0.0
2018-Feb-02 20:59N 51°03' E 001°46'0 0.0
2018-Feb-02 20:29N 51°03' E 001°46'0 0.0
2018-Feb-02 19:59N 51°03' E 001°46'0 0.0
2018-Feb-02 18:59N 51°03' E 001°46'0 0.0
2018-Feb-02 18:29N 51°03' E 001°46'0 0.1
2018-Feb-02 17:59N 51°03' E 001°46'0 0.2
2018-Feb-02 17:29N 51°03' E 001°46'0 0.4
2018-Feb-02 16:59N 51°03' E 001°46'0 0.4
2018-Feb-02 16:29N 51°03' E 001°46'0 0.1
2018-Feb-02 15:29N 51°03' E 001°46'0 0.0
2018-Feb-02 14:26N 51°03' E 001°46'0 0.0
2018-Feb-02 13:59N 51°03' E 001°46'0 0.0
2018-Feb-02 13:29N 51°03' E 001°46'0 0.0
2018-Feb-02 12:59N 51°03' E 001°47'0 0.0
2018-Feb-02 12:29N 51°03' E 001°47'0 0.1
2018-Feb-02 11:59N 51°03' E 001°47'0 0.3
2018-Feb-02 11:23N 51°03' E 001°47'0 0.5
2018-Feb-02 10:59N 51°03' E 001°46'0 0.5
2018-Feb-02 10:29N 51°03' E 001°46'0 0.1
2018-Feb-02 09:59N 51°03' E 001°46'0 0.0
2018-Feb-02 09:29N 51°03' E 001°46'0 0.0
2018-Feb-02 08:59N 51°03' E 001°46'0 0.0
2018-Feb-02 08:26N 51°03' E 001°46'0 0.0
2018-Feb-02 07:59N 51°03' E 001°46'0 0.0
2018-Feb-02 07:29N 51°03' E 001°46'0 0.0
2018-Feb-02 06:59N 51°03' E 001°46'0 0.0
2018-Feb-02 06:29N 51°03' E 001°46'0 0.0
2018-Feb-02 05:59N 51°03' E 001°46'0 0.3
2018-Feb-02 05:29N 51°03' E 001°46'0 0.3
2018-Feb-02 04:59N 51°03' E 001°46'0 0.4
2018-Feb-02 04:29N 51°03' E 001°47'0 0.2
2018-Feb-02 03:59N 51°03' E 001°47'0 0.1
2018-Feb-02 03:29N 51°03' E 001°46'0 0.0
2018-Feb-02 02:59N 51°03' E 001°46'0 0.0
2018-Feb-02 02:29N 51°03' E 001°46'0 0.0
2018-Feb-02 01:59N 51°03' E 001°46'0 0.0
2018-Feb-02 01:29N 51°03' E 001°46'0 0.0
2018-Feb-02 00:59N 51°03' E 001°46'0 0.0
2018-Feb-02 00:29N 51°03' E 001°46'0 0.1
2018-Feb-01 23:59N 51°03' E 001°47'0 0.2
2018-Feb-01 23:29N 51°03' E 001°47'0 0.3
2018-Feb-01 22:59N 51°03' E 001°46'0 0.3
2018-Feb-01 21:59N 51°03' E 001°46'0 0.0
2018-Feb-01 21:29N 51°03' E 001°46'0 0.0
2018-Feb-01 19:29N 51°03' E 001°46'0 0.0
2018-Feb-01 18:59N 51°03' E 001°46'0 0.1
2018-Feb-01 18:29N 51°03' E 001°46'0 0.1
2018-Feb-01 17:59N 51°03' E 001°46'0 0.0
2018-Feb-01 17:29N 51°03' E 001°46'0 0.1
2018-Feb-01 16:59N 51°03' E 001°46'0 0.4
2018-Feb-01 16:29N 51°03' E 001°47'0 0.4
2018-Feb-01 15:59N 51°03' E 001°47'0 0.1
2018-Feb-01 15:29N 51°03' E 001°47'0 0.0
2018-Feb-01 14:59N 51°03' E 001°47'0 0.0
2018-Feb-01 13:26N 51°03' E 001°47'  
Track history (hours):
 
Tides and Currents Weather Stations Pressure Air Temp Water Temp Dewpoint Dewpoint Depression Visibility Wind Speed Wind Dir Waves Ship Positions

Star Martha

Last reported at 2018-Feb-11 13:10 UTC. Time now 2018-Feb-17 20:19 UTC.
Position N 49°45' W 003°38'.

Length 289 m; draft 9.5 m.

Type: Cargo ship. MMSI: 538003904.

Date/timePositionNaut miles runAvg speedWind from/ knotsBaromVisibWave heightAir tempDewpointWater temp
2018-Feb-11 13:10N 49°45' W 003°38'211.4
2018-Feb-11 13:00N 49°46' W 003°35'611.6
2018-Feb-11 12:30N 49°49' W 003°27'612.1
2018-Feb-11 12:00N 49°51' W 003°19'612.5
2018-Feb-11 11:30N 49°54' W 003°11'712.9
2018-Feb-11 11:00N 49°58' W 003°02'612.9
2018-Feb-11 10:30N 49°60' W 002°53'712.9
2018-Feb-11 10:00N 50°02' W 002°43'612.9
2018-Feb-11 09:30N 50°03' W 002°33'712.7
2018-Feb-11 08:58N 50°05' W 002°23'1212.0
2018-Feb-11 07:57N 50°08' W 002°04'511.5
2018-Feb-11 07:29N 50°10' W 001°56'510.9
2018-Feb-11 07:00N 50°11' W 001°49'510.2
2018-Feb-11 06:30N 50°13' W 001°41'510.0
2018-Feb-11 06:00N 50°14' W 001°33'5 9.5
2018-Feb-11 05:31N 50°15' W 001°26'5 9.2
2018-Feb-11 04:59N 50°16' W 001°19'4 9.0
2018-Feb-11 04:30N 50°17' W 001°12'12 9.2
2018-Feb-11 03:15N 50°20' W 000°55'310.0
2018-Feb-11 02:57N 50°21' W 000°51'1510.7
2018-Feb-11 01:30N 50°25' W 000°27'510.9
2018-Feb-11 01:00N 50°27' W 000°19'611.3
2018-Feb-11 00:29N 50°29' W 000°10'611.6
2018-Feb-11 00:00N 50°30' W 000°02'611.3
2018-Feb-10 23:30N 50°31' E 000°07'611.2
2018-Feb-10 23:00N 50°32' E 000°16'611.0
2018-Feb-10 22:30N 50°34' E 000°24'511.0
2018-Feb-10 22:00N 50°35' E 000°32'510.5
2018-Feb-10 21:30N 50°37' E 000°40'510.1
2018-Feb-10 21:00N 50°40' E 000°46'510.0
2018-Feb-10 20:30N 50°43' E 000°52'5 9.5
2018-Feb-10 20:00N 50°46' E 000°59'5 9.5
2018-Feb-10 19:30N 50°49' E 001°05'5 9.7
2018-Feb-10 19:00N 50°52' E 001°11'5 9.6
2018-Feb-10 18:30N 50°54' E 001°18'5 9.5
2018-Feb-10 18:00N 50°58' E 001°22'510.0
2018-Feb-10 17:30N 51°02' E 001°27'510.8
2018-Feb-10 17:01N 51°05' E 001°34'510.1
2018-Feb-10 16:30N 51°03' E 001°42'510.0
2018-Feb-10 16:00N 51°02' E 001°50'5 9.5
2018-Feb-10 15:30N 51°03' E 001°57'713.4
2018-Feb-10 15:00N 51°03' E 002°08'713.1
2018-Feb-10 14:30N 51°04' E 002°18'2 3.2
2018-Feb-10 14:00N 51°03' E 002°21'0 0.2
2018-Feb-10 13:30N 51°03' E 002°20'0 0.1
2018-Feb-10 13:00N 51°03' E 002°20'0 0.8
2018-Feb-10 12:30N 51°03' E 002°20'0 0.2
2018-Feb-10 11:58N 51°03' E 002°20'0 0.0
2018-Feb-10 11:28N 51°03' E 002°20'0 0.0
2018-Feb-10 10:58N 51°03' E 002°20'0 0.0
2018-Feb-10 10:28N 51°03' E 002°20'0 0.0
2018-Feb-10 09:58N 51°03' E 002°20'0 0.0
2018-Feb-10 09:25N 51°03' E 002°20'0 0.0
2018-Feb-10 08:58N 51°03' E 002°20'0 0.0
2018-Feb-10 08:28N 51°03' E 002°20'0 0.0
2018-Feb-10 07:58N 51°03' E 002°20'0 0.0
2018-Feb-10 07:28N 51°03' E 002°20'0 0.0
2018-Feb-10 06:58N 51°03' E 002°20'0 0.0
2018-Feb-10 06:25N 51°03' E 002°20'0 0.0
2018-Feb-10 05:58N 51°03' E 002°20'0 0.0
2018-Feb-10 05:28N 51°03' E 002°20'0 0.0
2018-Feb-10 04:58N 51°03' E 002°20'0 0.0
2018-Feb-10 04:28N 51°03' E 002°20'0 0.0
2018-Feb-10 03:58N 51°03' E 002°20'0 0.0
2018-Feb-10 03:25N 51°03' E 002°20'0 0.0
2018-Feb-10 02:58N 51°03' E 002°20'0 0.0
2018-Feb-10 02:25N 51°03' E 002°20'0 0.0
2018-Feb-10 01:58N 51°03' E 002°20'0 0.0
2018-Feb-10 01:28N 51°03' E 002°20'0 0.0
2018-Feb-10 00:58N 51°03' E 002°20'0 0.0
2018-Feb-10 00:28N 51°03' E 002°20'0 0.0
2018-Feb-09 23:58N 51°03' E 002°20'0 0.0
2018-Feb-09 23:25N 51°03' E 002°20'0 0.0
2018-Feb-09 22:58N 51°03' E 002°20'0 0.0
2018-Feb-09 22:43N 51°03' E 002°20'0 0.0
2018-Feb-08 01:28N 51°03' E 002°20'0 0.0
2018-Feb-08 00:58N 51°03' E 002°20'0 0.0
2018-Feb-08 00:28N 51°03' E 002°20'0 0.0
2018-Feb-07 23:58N 51°03' E 002°20'0 0.0
2018-Feb-07 23:22N 51°03' E 002°20'0 0.0
2018-Feb-07 22:58N 51°03' E 002°20'0 0.0
2018-Feb-07 22:28N 51°03' E 002°20'0 0.0
2018-Feb-07 21:58N 51°03' E 002°20'0 0.0
2018-Feb-07 21:31N 51°03' E 002°20'0 0.0
2018-Feb-07 09:28N 51°03' E 002°20'0 0.0
2018-Feb-07 08:58N 51°03' E 002°20'0 0.0
2018-Feb-07 08:28N 51°03' E 002°20'0 0.0
2018-Feb-07 07:58N 51°03' E 002°20'0 0.0
2018-Feb-07 07:28N 51°03' E 002°20'0 0.0
2018-Feb-07 06:58N 51°03' E 002°20'0 0.0
2018-Feb-07 06:28N 51°03' E 002°20'0 0.0
2018-Feb-07 05:58N 51°03' E 002°20'0 0.0
2018-Feb-07 05:28N 51°03' E 002°20'0 0.0
2018-Feb-07 04:58N 51°03' E 002°20'0 0.0
2018-Feb-07 04:25N 51°03' E 002°20'0 0.0
2018-Feb-07 03:58N 51°03' E 002°20'0 0.0
2018-Feb-07 03:28N 51°03' E 002°20'0 0.0
2018-Feb-07 02:55N 51°03' E 002°20'0 0.0
2018-Feb-07 02:28N 51°03' E 002°20'0 0.0
2018-Feb-07 01:58N 51°03' E 002°20'0 0.0
2018-Feb-07 01:28N 51°03' E 002°20'0 0.0
2018-Feb-07 00:58N 51°03' E 002°20'0 0.0
2018-Feb-07 00:22N 51°03' E 002°20'0 0.0
2018-Feb-06 23:58N 51°03' E 002°20'0 0.0
2018-Feb-06 23:28N 51°03' E 002°20'0 0.0
2018-Feb-06 22:58N 51°03' E 002°20'0 0.0
2018-Feb-06 22:28N 51°03' E 002°20'0 0.0
2018-Feb-06 21:58N 51°03' E 002°20'0 0.0
2018-Feb-06 21:28N 51°03' E 002°20'0 0.0
2018-Feb-06 20:58N 51°03' E 002°20'0 0.0
2018-Feb-06 20:28N 51°03' E 002°20'1 0.6
2018-Feb-06 19:30N 51°03' E 002°20'0 0.1
2018-Feb-06 19:00N 51°03' E 002°21'0 0.3
2018-Feb-06 18:30N 51°03' E 002°21'1 1.2
2018-Feb-06 17:58N 51°04' E 002°21'3 7.2
2018-Feb-06 17:30N 51°04' E 002°15'4 7.8
2018-Feb-06 17:00N 51°03' E 002°09'2 4.4
2018-Feb-06 16:30N 51°01' E 002°10'1 1.4
2018-Feb-06 15:58N 51°00' E 002°11'0 0.0
2018-Feb-06 15:25N 51°00' E 002°11'0 0.0
2018-Feb-06 14:52N 51°00' E 002°11'0 0.0
2018-Feb-06 14:25N 51°00' E 002°11'0 0.0
2018-Feb-06 13:37N 51°00' E 002°11'0 0.0
2018-Feb-06 13:28N 51°00' E 002°11'0 0.0
2018-Feb-06 12:58N 51°00' E 002°11'0 0.0
2018-Feb-06 12:28N 51°00' E 002°11'0 0.0
2018-Feb-06 11:58N 51°00' E 002°11'0 0.0
2018-Feb-06 11:22N 51°00' E 002°11'0 0.0
2018-Feb-06 10:58N 51°00' E 002°11'0 0.0
2018-Feb-06 10:28N 51°00' E 002°11'0 0.0
2018-Feb-06 09:58N 51°00' E 002°11'0 0.0
2018-Feb-06 09:28N 51°00' E 002°11'0 0.0
2018-Feb-06 08:58N 51°00' E 002°11'0 0.0
2018-Feb-06 08:28N 51°00' E 002°11'0 0.0
2018-Feb-06 07:55N 51°00' E 002°11'0 0.0
2018-Feb-06 07:16N 51°00' E 002°11'0 0.0
2018-Feb-06 06:58N 51°00' E 002°11'0 0.0
2018-Feb-06 06:28N 51°00' E 002°11'0 0.0
2018-Feb-06 05:55N 51°00' E 002°11'0 0.0
2018-Feb-06 05:28N 51°00' E 002°11'0 0.0
2018-Feb-06 04:58N 51°00' E 002°11'0 0.0
2018-Feb-06 04:25N 51°00' E 002°11'0 0.0
2018-Feb-06 03:58N 51°00' E 002°11'0 0.0
2018-Feb-06 03:28N 51°00' E 002°11'0 0.0
2018-Feb-06 02:58N 51°00' E 002°11'0 0.0
2018-Feb-06 02:28N 51°00' E 002°11'0 0.0
2018-Feb-06 01:58N 51°00' E 002°11'0 0.0
2018-Feb-06 01:28N 51°00' E 002°11'0 0.0
2018-Feb-06 00:55N 51°00' E 002°11'0 0.0
2018-Feb-06 00:28N 51°00' E 002°11'0 0.0
2018-Feb-05 23:58N 51°00' E 002°11'0 0.0
2018-Feb-05 23:28N 51°00' E 002°11'0 0.0
2018-Feb-05 22:55N 51°00' E 002°11'0 0.0
2018-Feb-05 22:28N 51°00' E 002°11'0 0.0
2018-Feb-05 21:55N 51°00' E 002°11'0 0.0
2018-Feb-05 21:28N 51°00' E 002°11'0 0.0
2018-Feb-05 20:55N 51°00' E 002°11'0 0.0
2018-Feb-05 20:28N 51°00' E 002°11'0 0.0
2018-Feb-05 19:58N 51°00' E 002°11'0 0.0
2018-Feb-05 19:28N 51°00' E 002°11'0 0.0
2018-Feb-05 18:58N 51°00' E 002°11'0 0.0
2018-Feb-05 18:28N 51°00' E 002°11'0 0.0
2018-Feb-05 17:58N 51°00' E 002°11'0 0.0
2018-Feb-05 17:28N 51°00' E 002°11'0 0.0
2018-Feb-05 16:58N 51°00' E 002°11'0 0.0
2018-Feb-05 16:28N 51°00' E 002°11'0 0.0
2018-Feb-05 15:58N 51°00' E 002°11'0 0.0
2018-Feb-05 15:28N 51°00' E 002°11'0 0.0
2018-Feb-05 14:58N 51°00' E 002°11'0 0.0
2018-Feb-05 14:28N 51°00' E 002°11'0 0.0
2018-Feb-05 13:58N 51°00' E 002°11'0 0.0
2018-Feb-05 13:28N 51°00' E 002°11'0 0.0
2018-Feb-05 12:58N 51°00' E 002°11'0 0.0
2018-Feb-05 12:28N 51°00' E 002°11'0 0.0
2018-Feb-05 11:58N 51°00' E 002°11'0 0.0
2018-Feb-05 11:28N 51°00' E 002°11'0 0.0
2018-Feb-05 10:58N 51°00' E 002°11'0 0.0
2018-Feb-05 10:28N 51°00' E 002°11'0 0.0
2018-Feb-05 09:58N 51°00' E 002°11'0 0.0
2018-Feb-05 09:28N 51°00' E 002°11'0 0.0
2018-Feb-05 08:58N 51°00' E 002°11'0 0.0
2018-Feb-05 08:28N 51°00' E 002°11'0 0.0
2018-Feb-05 07:58N 51°00' E 002°11'0 0.0
2018-Feb-05 07:22N 51°00' E 002°11'0 0.0
2018-Feb-05 06:58N 51°00' E 002°11'0 0.0
2018-Feb-05 06:28N 51°00' E 002°11'0 0.0
2018-Feb-05 05:28N 51°00' E 002°11'0 0.0
2018-Feb-05 05:01N 51°00' E 002°11'0 0.0
2018-Feb-05 04:28N 51°00' E 002°11'0 0.0
2018-Feb-05 03:58N 51°00' E 002°11'0 0.0
2018-Feb-05 03:28N 51°00' E 002°11'0 0.0
2018-Feb-05 02:58N 51°00' E 002°11'0 0.0
2018-Feb-05 02:28N 51°00' E 002°11'0 0.0
2018-Feb-05 01:58N 51°00' E 002°11'0 0.0
2018-Feb-05 01:25N 51°00' E 002°11'0 0.0
2018-Feb-05 01:01N 51°00' E 002°11'0 0.0
2018-Feb-05 00:28N 51°00' E 002°11'0 0.0
2018-Feb-04 23:58N 51°00' E 002°11'0 0.0
2018-Feb-04 23:28N 51°00' E 002°11'0 0.0
2018-Feb-04 22:58N 51°00' E 002°11'0 0.0
2018-Feb-04 22:28N 51°00' E 002°11'0 0.0
2018-Feb-04 21:58N 51°00' E 002°11'0 0.0
2018-Feb-04 21:28N 51°00' E 002°11'0 0.0
2018-Feb-04 20:58N 51°00' E 002°11'0 0.0
2018-Feb-04 19:58N 51°00' E 002°11'0 0.0
2018-Feb-04 19:28N 51°00' E 002°11'0 0.0
2018-Feb-04 18:58N 51°00' E 002°11'0 0.0
2018-Feb-04 18:28N 51°00' E 002°11'0 0.0
2018-Feb-04 17:58N 51°00' E 002°11'0 0.0
2018-Feb-04 17:22N 51°00' E 002°11'0 0.0
2018-Feb-04 15:28N 51°00' E 002°11'0 0.0
2018-Feb-04 14:58N 51°00' E 002°11'0 0.0
2018-Feb-04 14:31N 51°00' E 002°11'0 0.0
2018-Feb-04 13:58N 51°00' E 002°11'0 0.0
2018-Feb-04 13:28N 51°00' E 002°11'0 0.0
2018-Feb-04 12:58N 51°00' E 002°11'0 0.0
2018-Feb-04 12:28N 51°00' E 002°11'0 0.0
2018-Feb-04 11:58N 51°00' E 002°11'0 0.0
2018-Feb-04 11:28N 51°00' E 002°11'0 0.0
2018-Feb-04 09:58N 51°00' E 002°11'0 0.0
2018-Feb-04 09:00N 51°00' E 002°11'0 0.0
2018-Feb-04 08:28N 51°00' E 002°11'0 0.0
2018-Feb-04 07:58N 51°00' E 002°11'0 0.0
2018-Feb-04 07:28N 51°00' E 002°11'0 0.0
2018-Feb-04 06:58N 51°00' E 002°11'0 0.0
2018-Feb-04 06:28N 51°00' E 002°11'0 0.0
2018-Feb-04 06:01N 51°00' E 002°11'0 0.0
2018-Feb-04 05:28N 51°00' E 002°11'0 0.0
2018-Feb-04 04:58N 51°00' E 002°11'0 0.0
2018-Feb-04 04:28N 51°00' E 002°11'0 0.0
2018-Feb-04 03:58N 51°00' E 002°11'0 0.0
2018-Feb-04 03:28N 51°00' E 002°11'0 0.0
2018-Feb-04 02:58N 51°00' E 002°11'0 0.0
2018-Feb-04 02:27N 51°00' E 002°11'0 0.0
2018-Feb-04 01:58N 51°00' E 002°11'0 0.0
2018-Feb-04 01:28N 51°00' E 002°11'0 0.0
2018-Feb-04 00:58N 51°00' E 002°11'0 0.0
2018-Feb-04 00:27N 51°00' E 002°11'0 0.0
2018-Feb-04 00:00N 51°00' E 002°11'0 0.0
2018-Feb-03 23:28N 51°00' E 002°11'0 0.0
2018-Feb-03 23:00N 51°00' E 002°11'0 0.0
2018-Feb-03 22:31N 51°00' E 002°11'0 0.0
2018-Feb-03 22:01N 51°00' E 002°11'0 0.0
2018-Feb-03 21:30N 51°00' E 002°11'0 0.0
2018-Feb-03 20:58N 51°00' E 002°11'0 0.0
2018-Feb-03 20:30N 51°00' E 002°11'0 0.0
2018-Feb-03 19:57N 51°00' E 002°11'0 0.0
2018-Feb-03 18:28N 51°00' E 002°11'0 0.0
2018-Feb-03 17:57N 51°00' E 002°11'0 0.0
2018-Feb-03 17:28N 51°00' E 002°11'0 0.0
2018-Feb-03 17:00N 51°00' E 002°11'0 0.0
2018-Feb-03 16:00N 51°00' E 002°11'0 0.0
2018-Feb-03 15:27N 51°00' E 002°11'0 0.0
2018-Feb-03 15:01N 51°00' E 002°11'0 0.0
2018-Feb-03 14:24N 51°00' E 002°11'0 0.1
2018-Feb-03 13:58N 51°00' E 002°11'0 0.1
2018-Feb-03 13:27N 51°00' E 002°11'0 0.0
2018-Feb-03 12:57N 51°00' E 002°11'0 0.0
2018-Feb-03 12:21N 51°00' E 002°11'0 0.2
2018-Feb-03 12:00N 51°00' E 002°11'1 1.2
2018-Feb-03 11:31N 51°01' E 002°11'1 2.6
2018-Feb-03 11:00N 51°02' E 002°10'3 5.5
2018-Feb-03 10:30N 51°03' E 002°06'4 7.2
2018-Feb-03 10:00N 51°02' E 002°00'4 9.0
2018-Feb-03 09:30N 51°03' E 001°53'3 6.8
2018-Feb-03 09:00N 51°02' E 001°48'1 2.8
2018-Feb-03 08:31N 51°03' E 001°46'0 0.2
2018-Feb-03 07:59N 51°03' E 001°46'0 0.2
2018-Feb-03 06:29N 51°03' E 001°46'0 0.4
2018-Feb-03 05:59N 51°03' E 001°46'0 0.1
2018-Feb-03 05:29N 51°03' E 001°46'0 0.1
2018-Feb-03 04:59N 51°03' E 001°46'0 0.0
2018-Feb-03 03:59N 51°03' E 001°47'0 0.0
2018-Feb-03 03:29N 51°03' E 001°47'0 0.0
2018-Feb-03 01:59N 51°03' E 001°47'0 0.0
2018-Feb-03 01:29N 51°03' E 001°47'0 0.0
2018-Feb-03 00:59N 51°03' E 001°47'0 0.0
2018-Feb-03 00:29N 51°03' E 001°47'0 0.2
2018-Feb-02 23:59N 51°03' E 001°47'0 0.5
2018-Feb-02 23:29N 51°03' E 001°46'0 0.3
2018-Feb-02 22:59N 51°03' E 001°46'0 0.1
2018-Feb-02 22:29N 51°03' E 001°46'0 0.0
2018-Feb-02 21:59N 51°03' E 001°46'0 0.0
2018-Feb-02 21:29N 51°03' E 001°46'0 0.0
2018-Feb-02 20:59N 51°03' E 001°46'0 0.0
2018-Feb-02 20:29N 51°03' E 001°46'0 0.0
2018-Feb-02 19:59N 51°03' E 001°46'0 0.0
2018-Feb-02 18:59N 51°03' E 001°46'0 0.0
2018-Feb-02 18:29N 51°03' E 001°46'0 0.1
2018-Feb-02 17:59N 51°03' E 001°46'0 0.2
2018-Feb-02 17:29N 51°03' E 001°46'0 0.4
2018-Feb-02 16:59N 51°03' E 001°46'0 0.4
2018-Feb-02 16:29N 51°03' E 001°46'0 0.1
2018-Feb-02 15:29N 51°03' E 001°46'0 0.0
2018-Feb-02 14:26N 51°03' E 001°46'0 0.0
2018-Feb-02 13:59N 51°03' E 001°46'0 0.0
2018-Feb-02 13:29N 51°03' E 001°46'0 0.0
2018-Feb-02 12:59N 51°03' E 001°47'0 0.0
2018-Feb-02 12:29N 51°03' E 001°47'0 0.1
2018-Feb-02 11:59N 51°03' E 001°47'0 0.3
2018-Feb-02 11:23N 51°03' E 001°47'0 0.5
2018-Feb-02 10:59N 51°03' E 001°46'0 0.5
2018-Feb-02 10:29N 51°03' E 001°46'0 0.1
2018-Feb-02 09:59N 51°03' E 001°46'0 0.0
2018-Feb-02 09:29N 51°03' E 001°46'0 0.0
2018-Feb-02 08:59N 51°03' E 001°46'0 0.0
2018-Feb-02 08:26N 51°03' E 001°46'0 0.0
2018-Feb-02 07:59N 51°03' E 001°46'0 0.0
2018-Feb-02 07:29N 51°03' E 001°46'0 0.0
2018-Feb-02 06:59N 51°03' E 001°46'0 0.0
2018-Feb-02 06:29N 51°03' E 001°46'0 0.0
2018-Feb-02 05:59N 51°03' E 001°46'0 0.3
2018-Feb-02 05:29N 51°03' E 001°46'0 0.3
2018-Feb-02 04:59N 51°03' E 001°46'0 0.4
2018-Feb-02 04:29N 51°03' E 001°47'0 0.2
2018-Feb-02 03:59N 51°03' E 001°47'0 0.1
2018-Feb-02 03:29N 51°03' E 001°46'0 0.0
2018-Feb-02 02:59N 51°03' E 001°46'0 0.0
2018-Feb-02 02:29N 51°03' E 001°46'0 0.0
2018-Feb-02 01:59N 51°03' E 001°46'0 0.0
2018-Feb-02 01:29N 51°03' E 001°46'0 0.0
2018-Feb-02 00:59N 51°03' E 001°46'0 0.0
2018-Feb-02 00:29N 51°03' E 001°46'0 0.1
2018-Feb-01 23:59N 51°03' E 001°47'0 0.2
2018-Feb-01 23:29N 51°03' E 001°47'0 0.3
2018-Feb-01 22:59N 51°03' E 001°46'0 0.3
2018-Feb-01 21:59N 51°03' E 001°46'0 0.0
2018-Feb-01 21:29N 51°03' E 001°46'0 0.0
2018-Feb-01 19:29N 51°03' E 001°46'0 0.0
2018-Feb-01 18:59N 51°03' E 001°46'0 0.1
2018-Feb-01 18:29N 51°03' E 001°46'0 0.1
2018-Feb-01 17:59N 51°03' E 001°46'0 0.0
2018-Feb-01 17:29N 51°03' E 001°46'0 0.1
2018-Feb-01 16:59N 51°03' E 001°46'0 0.4
2018-Feb-01 16:29N 51°03' E 001°47'0 0.4
2018-Feb-01 15:59N 51°03' E 001°47'0 0.1
2018-Feb-01 15:29N 51°03' E 001°47'0 0.0
2018-Feb-01 14:59N 51°03' E 001°47'0 0.0
2018-Feb-01 13:26N 51°03' E 001°47'  

Dump ship's entire track history